createdAt,value
2017-10-30T00:00:54.229Z,0
2017-10-30T00:01:55.740Z,0
2017-10-30T00:02:57.438Z,0
2017-10-30T00:03:58.934Z,0
2017-10-30T00:05:00.632Z,0
2017-10-30T00:06:02.197Z,0
2017-10-30T00:07:03.850Z,0
2017-10-30T00:08:05.337Z,0
2017-10-30T00:09:07.003Z,0
2017-10-30T00:10:08.509Z,0
2017-10-30T00:11:10.213Z,0
2017-10-30T00:12:11.717Z,0
2017-10-30T00:13:13.414Z,0
2017-10-30T00:14:15.128Z,0
2017-10-30T00:15:16.768Z,0
2017-10-30T00:16:18.341Z,0
2017-10-30T00:17:19.915Z,0
2017-10-30T00:18:21.433Z,0
2017-10-30T00:19:23.180Z,0
2017-10-30T00:20:24.749Z,0
2017-10-30T00:21:26.446Z,0
2017-10-30T00:22:27.984Z,0
2017-10-30T00:23:29.483Z,0
2017-10-30T00:24:31.215Z,0
2017-10-30T00:25:32.911Z,0
2017-10-30T00:26:35.600Z,0
2017-10-30T00:27:37.138Z,0
2017-10-30T00:28:39.881Z,0
2017-10-30T00:29:41.459Z,0
2017-10-30T00:30:43.082Z,0
2017-10-30T00:31:44.707Z,0
2017-10-30T00:32:46.433Z,0
2017-10-30T00:33:47.979Z,0
2017-10-30T00:34:49.686Z,0
2017-10-30T00:35:51.192Z,0
2017-10-30T00:36:52.837Z,0
2017-10-30T00:37:54.339Z,0
2017-10-30T00:38:56.043Z,0
2017-10-30T00:39:57.586Z,0
2017-10-30T00:40:59.284Z,0
2017-10-30T00:42:00.802Z,0
2017-10-30T00:43:03.484Z,0
2017-10-30T00:44:05.005Z,0
2017-10-30T00:45:06.627Z,0
2017-10-30T00:46:08.096Z,0
2017-10-30T00:47:10.755Z,0
2017-10-30T00:48:12.412Z,0
2017-10-30T00:49:13.917Z,0
2017-10-30T00:50:15.569Z,0
2017-10-30T00:51:17.103Z,0
2017-10-30T00:52:18.750Z,0
2017-10-30T00:53:20.315Z,0
2017-10-30T00:54:22.028Z,0
2017-10-30T00:55:23.555Z,0
2017-10-30T00:56:25.165Z,0
2017-10-30T00:57:26.773Z,0
2017-10-30T00:58:28.450Z,0
2017-10-30T00:59:30.054Z,0
2017-10-30T01:00:33.725Z,0
2017-10-30T01:01:35.283Z,0
2017-10-30T01:02:37.985Z,0
2017-10-30T01:03:39.628Z,0
2017-10-30T01:04:41.304Z,0
2017-10-30T01:05:42.850Z,0
2017-10-30T01:06:44.499Z,0
2017-10-30T01:07:45.967Z,0
2017-10-30T01:08:53.276Z,0
2017-10-30T01:09:54.809Z,0
2017-10-30T01:10:56.433Z,0
2017-10-30T01:11:57.934Z,0
2017-10-30T01:13:12.280Z,0
2017-10-30T01:14:13.803Z,0
2017-10-30T01:15:15.509Z,0
2017-10-30T01:16:16.994Z,0
2017-10-30T01:17:23.219Z,0
2017-10-30T01:18:24.744Z,0
2017-10-30T01:19:26.451Z,0
2017-10-30T01:20:27.936Z,0
2017-10-30T01:21:29.644Z,0
2017-10-30T01:22:31.213Z,0
2017-10-30T01:23:32.796Z,0
2017-10-30T01:24:34.484Z,0
2017-10-30T01:25:36.070Z,0
2017-10-30T01:26:38.782Z,0
2017-10-30T01:27:40.381Z,0
2017-10-30T01:28:42.020Z,0
2017-10-30T01:29:43.498Z,0
2017-10-30T01:30:45.066Z,0
2017-10-30T01:31:46.537Z,0
2017-10-30T01:32:52.703Z,0
2017-10-30T01:33:54.169Z,0
2017-10-30T01:34:56.941Z,0
2017-10-30T01:35:58.411Z,0
2017-10-30T01:36:59.937Z,0
2017-10-30T01:38:01.687Z,0
2017-10-30T01:39:03.239Z,0
2017-10-30T01:40:04.782Z,0
2017-10-30T01:41:06.481Z,0
2017-10-30T01:42:07.961Z,0
2017-10-30T01:43:10.599Z,0
2017-10-30T01:44:12.111Z,0
2017-10-30T01:45:13.773Z,0
2017-10-30T01:46:15.304Z,0
2017-10-30T01:47:16.950Z,0
2017-10-30T01:48:18.442Z,0
2017-10-30T01:49:21.089Z,0
2017-10-30T01:50:22.606Z,0
2017-10-30T01:51:24.292Z,0
2017-10-30T01:52:25.820Z,0
2017-10-30T01:53:27.450Z,0
2017-10-30T01:54:29.027Z,0
2017-10-30T01:55:30.732Z,0
2017-10-30T01:56:32.228Z,0
2017-10-30T01:57:33.973Z,0
2017-10-30T01:58:35.440Z,0
2017-10-30T01:59:37.141Z,0
2017-10-30T02:00:38.600Z,0
2017-10-30T02:01:40.252Z,0
2017-10-30T02:02:41.738Z,0
2017-10-30T02:03:43.340Z,0
2017-10-30T02:04:44.866Z,0
2017-10-30T02:05:46.671Z,0
2017-10-30T02:06:48.168Z,0
2017-10-30T02:07:50.857Z,0
2017-10-30T02:08:52.305Z,0
2017-10-30T02:09:58.752Z,0
2017-10-30T02:11:00.231Z,0
2017-10-30T02:12:01.869Z,0
2017-10-30T02:13:03.385Z,0
2017-10-30T02:14:05.043Z,0
2017-10-30T02:15:06.553Z,0
2017-10-30T02:16:08.241Z,0
2017-10-30T02:17:09.781Z,0
2017-10-30T02:18:11.407Z,0
2017-10-30T02:19:12.873Z,0
2017-10-30T02:20:14.530Z,0
2017-10-30T02:21:16.052Z,0
2017-10-30T02:22:17.645Z,0
2017-10-30T02:23:19.187Z,0
2017-10-30T02:24:20.935Z,0
2017-10-30T02:25:22.407Z,0
2017-10-30T02:26:24.146Z,0
2017-10-30T02:27:25.634Z,0
2017-10-30T02:28:27.231Z,0
2017-10-30T02:29:28.783Z,0
2017-10-30T02:30:30.326Z,0
2017-10-30T02:31:32.056Z,0
2017-10-30T02:32:33.798Z,0
2017-10-30T02:33:35.498Z,0
2017-10-30T02:34:37.009Z,0
2017-10-30T02:35:38.677Z,0
2017-10-30T02:36:40.247Z,0
2017-10-30T02:37:41.878Z,0
2017-10-30T02:38:43.389Z,0
2017-10-30T02:39:44.918Z,0
2017-10-30T02:40:46.648Z,0
2017-10-30T02:41:48.126Z,0
2017-10-30T02:42:49.798Z,0
2017-10-30T02:43:51.294Z,0
2017-10-30T02:44:52.973Z,0
2017-10-30T02:45:54.502Z,0
2017-10-30T02:46:56.153Z,0
2017-10-30T02:47:57.621Z,0
2017-10-30T02:48:59.186Z,0
2017-10-30T02:50:00.911Z,0
2017-10-30T02:51:02.437Z,0
2017-10-30T02:52:04.141Z,0
2017-10-30T02:53:05.655Z,0
2017-10-30T02:54:07.377Z,0
2017-10-30T02:55:08.891Z,0
2017-10-30T02:56:10.555Z,0
2017-10-30T02:57:12.036Z,0
2017-10-30T02:58:13.691Z,0
2017-10-30T02:59:15.220Z,0
2017-10-30T03:00:16.960Z,0
2017-10-30T03:01:18.473Z,0
2017-10-30T03:02:20.151Z,0
2017-10-30T03:03:21.723Z,0
2017-10-30T03:04:23.475Z,0
2017-10-30T03:05:25.082Z,0
2017-10-30T03:06:26.672Z,0
2017-10-30T03:07:28.447Z,0
2017-10-30T03:08:30.037Z,0
2017-10-30T03:09:31.678Z,0
2017-10-30T03:10:33.194Z,0
2017-10-30T03:11:34.908Z,0
2017-10-30T03:12:36.401Z,0
2017-10-30T03:13:38.094Z,0
2017-10-30T03:14:39.546Z,0
2017-10-30T03:15:41.148Z,0
2017-10-30T03:16:42.623Z,0
2017-10-30T03:17:44.260Z,0
2017-10-30T03:18:45.810Z,0
2017-10-30T03:19:47.471Z,0
2017-10-30T03:20:48.994Z,0
2017-10-30T03:21:50.673Z,0
2017-10-30T03:22:52.172Z,0
2017-10-30T03:23:54.877Z,0
2017-10-30T03:24:56.480Z,0
2017-10-30T03:25:58.126Z,0
2017-10-30T03:26:59.783Z,0
2017-10-30T03:28:01.550Z,0
2017-10-30T03:29:03.132Z,0
2017-10-30T03:30:04.834Z,0
2017-10-30T03:31:06.330Z,0
2017-10-30T03:32:08.008Z,0
2017-10-30T03:33:09.527Z,0
2017-10-30T03:34:11.109Z,0
2017-10-30T03:35:12.600Z,0
2017-10-30T03:36:14.300Z,0
2017-10-30T03:37:15.816Z,0
2017-10-30T03:38:17.471Z,0
2017-10-30T03:39:19.063Z,0
2017-10-30T03:40:20.821Z,0
2017-10-30T03:41:22.406Z,0
2017-10-30T03:42:24.143Z,0
2017-10-30T03:43:25.660Z,0
2017-10-30T03:44:27.182Z,0
2017-10-30T03:45:28.774Z,0
2017-10-30T03:46:30.469Z,0
2017-10-30T03:47:32.024Z,0
2017-10-30T03:48:33.811Z,0
2017-10-30T03:49:35.305Z,0
2017-10-30T03:50:36.875Z,0
2017-10-30T03:51:38.369Z,0
2017-10-30T03:52:40.049Z,0
2017-10-30T03:53:41.585Z,0
2017-10-30T03:54:43.271Z,0
2017-10-30T03:55:44.826Z,0
2017-10-30T03:56:46.583Z,0
2017-10-30T03:57:48.198Z,0
2017-10-30T03:58:50.019Z,0
2017-10-30T03:59:51.558Z,0
2017-10-30T04:00:53.412Z,0
2017-10-30T04:01:54.956Z,0
2017-10-30T04:02:56.707Z,0
2017-10-30T04:03:58.242Z,0
2017-10-30T04:04:59.722Z,0
2017-10-30T04:06:01.222Z,0
2017-10-30T04:07:02.921Z,0
2017-10-30T04:08:04.459Z,0
2017-10-30T04:09:06.060Z,0
2017-10-30T04:10:07.520Z,0
2017-10-30T04:11:11.214Z,0
2017-10-30T04:12:12.700Z,0
2017-10-30T04:13:14.304Z,0
2017-10-30T04:14:15.841Z,0
2017-10-30T04:15:18.522Z,0
2017-10-30T04:16:20.053Z,0
2017-10-30T04:17:21.710Z,0
2017-10-30T04:18:23.211Z,0
2017-10-30T04:19:24.914Z,0
2017-10-30T04:20:26.425Z,0
2017-10-30T04:21:28.091Z,0
2017-10-30T04:22:29.647Z,0
2017-10-30T04:23:31.473Z,0
2017-10-30T04:24:33.121Z,0
2017-10-30T04:25:34.862Z,0
2017-10-30T04:26:36.366Z,0
2017-10-30T04:27:37.984Z,0
2017-10-30T04:28:39.497Z,0
2017-10-30T04:29:41.100Z,0
2017-10-30T04:30:42.580Z,0
2017-10-30T04:31:44.213Z,0
2017-10-30T04:32:45.772Z,0
2017-10-30T04:33:48.450Z,0
2017-10-30T04:34:49.973Z,0
2017-10-30T04:36:32.493Z,0
2017-10-30T04:37:33.879Z,0
2017-10-30T04:38:37.375Z,0
2017-10-30T04:39:38.806Z,0
2017-10-30T04:40:40.264Z,0
2017-10-30T04:41:41.645Z,0
2017-10-30T04:42:43.192Z,0
2017-10-30T04:43:44.574Z,0
2017-10-30T04:44:46.116Z,0
2017-10-30T04:45:47.493Z,0
2017-10-30T04:46:48.993Z,0
2017-10-30T04:47:50.369Z,0
2017-10-30T04:48:51.921Z,0
2017-10-30T04:49:53.314Z,0
2017-10-30T04:50:54.862Z,0
2017-10-30T04:51:56.297Z,0
2017-10-30T04:52:57.841Z,0
2017-10-30T04:53:59.201Z,0
2017-10-30T04:55:00.715Z,0
2017-10-30T04:56:02.101Z,0
2017-10-30T04:57:03.646Z,0
2017-10-30T04:58:05.014Z,0
2017-10-30T04:59:06.504Z,0
2017-10-30T05:00:07.864Z,0
2017-10-30T05:01:09.220Z,0
2017-10-30T05:02:10.699Z,0
2017-10-30T05:03:12.085Z,0
2017-10-30T05:04:13.498Z,0
2017-10-30T05:05:14.916Z,0
2017-10-30T05:06:16.461Z,0
2017-10-30T05:07:17.877Z,0
2017-10-30T05:08:19.296Z,0
2017-10-30T05:09:20.670Z,0
2017-10-30T05:10:22.216Z,0
2017-10-30T05:11:23.589Z,0
2017-10-30T05:12:25.133Z,0
2017-10-30T05:13:26.520Z,0
2017-10-30T05:14:28.016Z,0
2017-10-30T05:15:29.372Z,0
2017-10-30T05:16:30.857Z,0
2017-10-30T05:17:32.230Z,0
2017-10-30T05:18:33.749Z,0
2017-10-30T05:19:35.164Z,0
2017-10-30T05:20:36.726Z,0
2017-10-30T05:21:38.104Z,0
2017-10-30T05:22:39.602Z,0
2017-10-30T05:23:40.966Z,0
2017-10-30T05:24:42.518Z,0
2017-10-30T05:25:43.927Z,0
2017-10-30T05:26:45.462Z,0
2017-10-30T05:27:46.838Z,0
2017-10-30T05:28:48.357Z,0
2017-10-30T05:29:49.725Z,0
2017-10-30T05:30:52.092Z,0
2017-10-30T05:31:53.470Z,0
2017-10-30T05:32:54.930Z,0
2017-10-30T05:33:56.289Z,0
2017-10-30T05:34:57.830Z,0
2017-10-30T05:35:59.197Z,0
2017-10-30T05:37:00.781Z,4
2017-10-30T05:38:02.152Z,0
2017-10-30T05:39:03.698Z,0
2017-10-30T05:40:05.108Z,4
2017-10-30T05:41:06.650Z,4
2017-10-30T05:42:08.047Z,8
2017-10-30T05:43:09.554Z,4
2017-10-30T05:44:11.026Z,8
2017-10-30T05:45:12.416Z,8
2017-10-30T05:46:14.009Z,8
2017-10-30T05:47:15.378Z,12
2017-10-30T05:48:16.839Z,16
2017-10-30T05:49:18.250Z,20
2017-10-30T05:50:19.822Z,24
2017-10-30T05:51:21.186Z,28
2017-10-30T05:52:22.733Z,32
2017-10-30T05:53:24.111Z,36
2017-10-30T05:54:25.683Z,44
2017-10-30T05:55:27.065Z,52
2017-10-30T05:56:28.558Z,68
2017-10-30T05:57:29.981Z,84
2017-10-30T05:58:32.471Z,104
2017-10-30T05:59:33.842Z,132
2017-10-30T06:00:35.422Z,160
2017-10-30T06:01:36.779Z,180
2017-10-30T06:02:38.330Z,204
2017-10-30T06:03:39.703Z,232
2017-10-30T06:04:41.142Z,260
2017-10-30T06:05:42.518Z,288
2017-10-30T06:06:43.990Z,316
2017-10-30T06:07:45.352Z,340
2017-10-30T06:08:46.865Z,368
2017-10-30T06:09:48.234Z,392
2017-10-30T06:10:49.924Z,420
2017-10-30T06:11:51.340Z,456
2017-10-30T06:12:52.831Z,496
2017-10-30T06:13:54.194Z,528
2017-10-30T06:14:55.763Z,564
2017-10-30T06:15:57.150Z,608
2017-10-30T06:16:58.715Z,668
2017-10-30T06:18:00.107Z,768
2017-10-30T06:19:01.616Z,888
2017-10-30T06:20:03.014Z,1024
2017-10-30T06:21:04.565Z,1180
2017-10-30T06:22:05.929Z,1332
2017-10-30T06:23:07.360Z,1456
2017-10-30T06:24:08.734Z,1576
2017-10-30T06:25:10.220Z,1720
2017-10-30T06:26:11.633Z,1832
2017-10-30T06:27:13.082Z,1904
2017-10-30T06:28:14.599Z,1976
2017-10-30T06:29:16.108Z,2036
2017-10-30T06:30:17.474Z,2124
2017-10-30T06:31:19.064Z,2132
2017-10-30T06:32:20.439Z,2120
2017-10-30T06:33:21.949Z,2152
2017-10-30T06:34:23.320Z,2240
2017-10-30T06:35:24.841Z,2356
2017-10-30T06:36:26.248Z,2460
2017-10-30T06:37:27.694Z,2632
2017-10-30T06:38:29.081Z,2948
2017-10-30T06:39:30.592Z,3292
2017-10-30T06:40:31.960Z,3592
2017-10-30T06:41:33.418Z,3944
2017-10-30T06:42:34.794Z,4044
2017-10-30T06:43:36.345Z,4040
2017-10-30T06:44:37.718Z,3964
2017-10-30T06:45:39.145Z,3832
2017-10-30T06:46:40.530Z,3840
2017-10-30T06:47:42.008Z,3956
2017-10-30T06:48:43.372Z,4032
2017-10-30T06:49:44.889Z,3888
2017-10-30T06:51:01.458Z,3736
2017-10-30T06:52:02.846Z,3612
2017-10-30T06:53:04.388Z,3664
2017-10-30T06:54:05.773Z,3676
2017-10-30T06:55:08.200Z,3728
2017-10-30T06:56:09.595Z,3684
2017-10-30T06:57:11.068Z,3616
2017-10-30T06:58:12.465Z,3688
2017-10-30T06:59:14.869Z,3832
2017-10-30T07:00:16.868Z,3892
2017-10-30T07:01:18.265Z,3900
2017-10-30T07:02:19.665Z,3924
2017-10-30T07:03:21.243Z,3916
2017-10-30T07:04:22.654Z,3732
2017-10-30T07:05:24.206Z,3420
2017-10-30T07:06:25.565Z,3172
2017-10-30T07:07:28.031Z,3204
2017-10-30T07:08:29.439Z,3684
2017-10-30T07:09:30.909Z,4172
2017-10-30T07:10:32.285Z,4432
2017-10-30T07:11:33.732Z,4584
2017-10-30T07:12:35.103Z,4584
2017-10-30T07:13:36.590Z,4420
2017-10-30T07:14:37.951Z,4456
2017-10-30T07:15:39.357Z,4768
2017-10-30T07:16:40.749Z,5020
2017-10-30T07:17:42.323Z,5192
2017-10-30T07:18:43.728Z,5324
2017-10-30T07:19:45.104Z,5496
2017-10-30T07:20:47.036Z,5556
2017-10-30T07:21:48.422Z,5468
2017-10-30T07:22:49.932Z,5092
2017-10-30T07:23:51.319Z,4712
2017-10-30T07:24:52.877Z,4580
2017-10-30T07:25:54.253Z,4416
2017-10-30T07:26:55.771Z,4216
2017-10-30T07:27:57.142Z,3856
2017-10-30T07:28:59.733Z,3588
2017-10-30T07:30:01.169Z,3516
2017-10-30T07:31:02.683Z,3724
2017-10-30T07:32:04.069Z,3804
2017-10-30T07:33:05.537Z,4028
2017-10-30T07:34:06.918Z,3924
2017-10-30T07:35:08.332Z,3840
2017-10-30T07:36:09.715Z,3916
2017-10-30T07:37:11.093Z,4084
2017-10-30T07:38:12.459Z,4480
2017-10-30T07:39:13.872Z,4680
2017-10-30T07:40:15.307Z,4684
2017-10-30T07:41:16.784Z,4612
2017-10-30T07:42:18.147Z,4628
2017-10-30T07:43:19.577Z,4912
2017-10-30T07:44:20.973Z,5228
2017-10-30T07:45:22.457Z,5588
2017-10-30T07:46:23.836Z,5820
2017-10-30T07:47:25.345Z,5808
2017-10-30T07:48:26.770Z,5720
2017-10-30T07:49:28.273Z,5648
2017-10-30T07:50:29.659Z,5372
2017-10-30T07:51:31.084Z,5392
2017-10-30T07:52:32.458Z,5532
2017-10-30T07:53:33.995Z,5756
2017-10-30T07:54:35.398Z,6324
2017-10-30T07:55:36.839Z,7012
2017-10-30T07:56:38.297Z,7628
2017-10-30T07:57:39.685Z,7684
2017-10-30T07:58:41.160Z,7688
2017-10-30T07:59:42.562Z,7800
2017-10-30T08:00:45.061Z,8088
2017-10-30T08:01:46.524Z,8876
2017-10-30T08:02:47.961Z,9456
2017-10-30T08:03:49.338Z,9680
2017-10-30T08:04:51.849Z,9688
2017-10-30T08:05:53.215Z,9780
2017-10-30T08:06:54.624Z,9784
2017-10-30T08:07:56.037Z,9816
2017-10-30T08:08:57.521Z,9704
2017-10-30T08:09:58.955Z,9416
2017-10-30T08:11:00.357Z,8860
2017-10-30T08:12:01.742Z,8268
2017-10-30T08:13:03.610Z,8404
2017-10-30T08:14:05.039Z,8420
2017-10-30T08:15:06.475Z,8324
2017-10-30T08:16:07.885Z,8692
2017-10-30T08:17:09.346Z,9728
2017-10-30T08:18:10.780Z,10664
2017-10-30T08:19:12.227Z,11244
2017-10-30T08:20:13.632Z,11832
2017-10-30T08:21:16.121Z,11960
2017-10-30T08:22:17.484Z,11808
2017-10-30T08:23:19.008Z,12192
2017-10-30T08:24:20.412Z,13060
2017-10-30T08:25:21.995Z,13872
2017-10-30T08:26:23.389Z,14296
2017-10-30T08:27:24.977Z,15572
2017-10-30T08:28:26.420Z,16540
2017-10-30T08:29:27.953Z,17080
2017-10-30T08:30:29.385Z,16584
2017-10-30T08:31:30.908Z,16032
2017-10-30T08:32:32.478Z,15852
2017-10-30T08:33:34.036Z,16280
2017-10-30T08:34:35.420Z,16248
2017-10-30T08:35:37.085Z,16192
2017-10-30T08:36:38.543Z,16068
2017-10-30T08:37:40.099Z,16020
2017-10-30T08:38:41.516Z,16420
2017-10-30T08:39:43.054Z,16308
2017-10-30T08:40:44.509Z,15784
2017-10-30T08:41:45.908Z,14720
2017-10-30T08:42:47.495Z,14364
2017-10-30T08:43:48.886Z,15180
2017-10-30T08:44:50.477Z,16132
2017-10-30T08:45:51.869Z,16632
2017-10-30T08:46:53.511Z,16852
2017-10-30T08:47:55.574Z,17072
2017-10-30T08:48:57.132Z,17292
2017-10-30T08:49:58.539Z,17632
2017-10-30T08:51:00.038Z,18080
2017-10-30T08:52:01.683Z,17568
2017-10-30T08:53:03.478Z,18528
2017-10-30T08:54:05.080Z,19136
2017-10-30T08:55:06.626Z,19552
2017-10-30T08:56:08.113Z,20032
2017-10-30T08:57:10.673Z,20928
2017-10-30T08:58:12.076Z,21472
2017-10-30T08:59:13.601Z,21856
2017-10-30T09:00:14.988Z,21984
2017-10-30T09:01:17.513Z,22816
2017-10-30T09:02:18.869Z,24608
2017-10-30T09:03:20.412Z,25280
2017-10-30T09:04:21.848Z,25056
2017-10-30T09:05:28.140Z,23616
2017-10-30T09:06:29.529Z,23488
2017-10-30T09:07:33.119Z,23744
2017-10-30T09:08:34.553Z,24448
2017-10-30T09:09:37.022Z,25472
2017-10-30T09:10:38.407Z,26400
2017-10-30T09:11:39.867Z,26816
2017-10-30T09:12:41.259Z,28032
2017-10-30T09:13:42.683Z,30912
2017-10-30T09:14:44.059Z,27904
2017-10-30T09:15:45.650Z,27008
2017-10-30T09:16:47.042Z,27168
2017-10-30T09:17:49.570Z,24672
2017-10-30T09:18:51.004Z,24352
2017-10-30T09:19:52.465Z,24256
2017-10-30T09:20:53.921Z,23872
2017-10-30T09:21:55.903Z,23968
2017-10-30T09:22:57.605Z,24768
2017-10-30T09:23:59.274Z,25760
2017-10-30T09:25:01.047Z,26720
2017-10-30T09:26:02.813Z,27552
2017-10-30T09:27:04.377Z,27456
2017-10-30T09:28:06.084Z,27904
2017-10-30T09:29:07.676Z,29216
2017-10-30T09:30:10.486Z,42656
2017-10-30T09:31:12.114Z,30592
2017-10-30T09:32:13.922Z,26016
2017-10-30T09:33:15.672Z,24000
2017-10-30T09:34:17.270Z,23968
2017-10-30T09:35:19.057Z,24448
2017-10-30T09:36:21.842Z,25248
2017-10-30T09:37:23.351Z,25504
2017-10-30T09:38:24.969Z,25984
2017-10-30T09:39:26.618Z,26400
2017-10-30T09:40:28.377Z,27008
2017-10-30T09:41:30.020Z,27968
2017-10-30T09:42:31.600Z,28544
2017-10-30T09:43:33.181Z,28096
2017-10-30T09:44:34.792Z,27840
2017-10-30T09:45:36.453Z,27840
2017-10-30T09:46:39.172Z,27168
2017-10-30T09:47:40.903Z,27488
2017-10-30T09:48:42.602Z,25696
2017-10-30T09:49:44.265Z,25408
2017-10-30T09:50:46.671Z,25472
2017-10-30T09:51:48.553Z,25536
2017-10-30T09:52:51.010Z,25824
2017-10-30T09:53:52.577Z,25984
2017-10-30T09:54:54.234Z,25984
2017-10-30T09:55:55.779Z,26272
2017-10-30T09:56:57.372Z,26656
2017-10-30T09:57:58.968Z,26528
2017-10-30T09:59:00.564Z,26496
2017-10-30T10:00:02.227Z,26432
2017-10-30T10:01:03.986Z,26720
2017-10-30T10:02:05.502Z,27072
2017-10-30T10:03:07.265Z,27616
2017-10-30T10:04:08.870Z,28384
2017-10-30T10:05:10.959Z,29088
2017-10-30T10:06:12.549Z,29664
2017-10-30T10:07:15.203Z,30304
2017-10-30T10:08:16.912Z,31520
2017-10-30T10:09:18.787Z,32640
2017-10-30T10:10:20.493Z,33472
2017-10-30T10:11:22.174Z,33504
2017-10-30T10:12:23.823Z,33440
2017-10-30T10:13:25.405Z,34016
2017-10-30T10:14:27.610Z,33184
2017-10-30T10:15:29.199Z,32608
2017-10-30T10:16:31.211Z,33920
2017-10-30T10:17:33.065Z,32288
2017-10-30T10:18:34.690Z,31488
2017-10-30T10:19:36.578Z,30496
2017-10-30T10:20:38.040Z,29376
2017-10-30T10:21:39.625Z,27232
2017-10-30T10:22:41.525Z,27776
2017-10-30T10:23:43.101Z,25824
2017-10-30T10:24:44.662Z,26912
2017-10-30T10:25:46.340Z,28320
2017-10-30T10:26:49.104Z,29760
2017-10-30T10:27:50.899Z,30688
2017-10-30T10:28:52.978Z,30144
2017-10-30T10:29:55.159Z,28608
2017-10-30T10:30:57.317Z,28960
2017-10-30T10:31:58.976Z,30560
2017-10-30T10:33:00.881Z,33408
2017-10-30T10:34:04.180Z,33344
2017-10-30T10:35:06.114Z,34976
2017-10-30T10:36:08.844Z,34752
2017-10-30T10:37:10.480Z,35712
2017-10-30T10:38:12.586Z,37824
2017-10-30T10:39:14.164Z,43264
2017-10-30T10:40:15.877Z,39584
2017-10-30T10:41:17.595Z,34464
2017-10-30T10:42:19.405Z,32576
2017-10-30T10:43:21.279Z,31200
2017-10-30T10:44:24.544Z,28704
2017-10-30T10:45:26.630Z,27712
2017-10-30T10:46:28.587Z,26464
2017-10-30T10:47:30.603Z,26080
2017-10-30T10:48:32.560Z,26048
2017-10-30T10:49:34.123Z,27616
2017-10-30T10:50:36.052Z,29472
2017-10-30T10:51:37.590Z,28352
2017-10-30T10:52:39.230Z,33760
2017-10-30T10:53:40.800Z,27296
2017-10-30T10:54:42.420Z,29792
2017-10-30T10:55:44.080Z,68992
2017-10-30T10:56:45.649Z,69920
2017-10-30T10:57:47.216Z,60160
2017-10-30T10:58:48.975Z,64096
2017-10-30T10:59:50.540Z,53536
2017-10-30T11:00:52.352Z,60576
2017-10-30T11:01:53.979Z,63296
2017-10-30T11:02:56.175Z,61696
2017-10-30T11:03:57.730Z,32768
2017-10-30T11:04:59.310Z,35104
2017-10-30T11:06:00.854Z,39776
2017-10-30T11:07:02.524Z,27200
2017-10-30T11:08:04.402Z,35424
2017-10-30T11:09:06.518Z,28544
2017-10-30T11:10:08.009Z,26208
2017-10-30T11:11:10.602Z,45952
2017-10-30T11:12:12.227Z,37888
2017-10-30T11:13:13.954Z,25056
2017-10-30T11:14:15.742Z,52032
2017-10-30T11:15:17.298Z,64576
2017-10-30T11:16:19.016Z,65376
2017-10-30T11:17:21.712Z,66912
2017-10-30T11:18:23.282Z,52384
2017-10-30T11:19:25.906Z,34560
2017-10-30T11:20:28.134Z,23040
2017-10-30T11:21:29.703Z,24864
2017-10-30T11:22:31.293Z,64064
2017-10-30T11:23:32.803Z,61888
2017-10-30T11:24:34.457Z,55456
2017-10-30T11:25:36.059Z,60608
2017-10-30T11:26:37.727Z,25472
2017-10-30T11:27:40.353Z,29664
2017-10-30T11:28:41.991Z,61600
2017-10-30T11:29:43.560Z,60416
2017-10-30T11:30:45.137Z,41280
2017-10-30T11:31:47.675Z,69888
2017-10-30T11:32:49.294Z,41856
2017-10-30T11:33:50.864Z,69920
2017-10-30T11:34:52.536Z,34240
2017-10-30T11:35:54.161Z,64832
2017-10-30T11:36:55.797Z,48160
2017-10-30T11:37:57.434Z,31808
2017-10-30T11:38:59.099Z,59072
2017-10-30T11:40:00.637Z,57600
2017-10-30T11:41:02.372Z,51552
2017-10-30T11:42:03.918Z,38912
2017-10-30T11:43:06.455Z,63104
2017-10-30T11:44:07.996Z,47168
2017-10-30T11:45:09.600Z,50784
2017-10-30T11:46:12.049Z,61888
2017-10-30T11:47:13.542Z,26176
2017-10-30T11:48:15.109Z,58272
2017-10-30T11:49:16.667Z,59040
2017-10-30T11:50:18.242Z,56928
2017-10-30T11:51:19.960Z,56800
2017-10-30T11:52:21.530Z,58048
2017-10-30T11:53:23.168Z,56960
2017-10-30T11:54:24.759Z,54464
2017-10-30T11:55:26.355Z,37376
2017-10-30T11:56:27.941Z,14720
2017-10-30T11:57:30.289Z,34336
2017-10-30T11:58:31.871Z,23584
2017-10-30T11:59:33.584Z,57696
2017-10-30T12:00:35.148Z,57024
2017-10-30T12:01:36.744Z,18592
2017-10-30T12:02:38.349Z,19072
2017-10-30T12:03:40.004Z,25984
2017-10-30T12:04:41.538Z,46944
2017-10-30T12:05:43.110Z,56800
2017-10-30T12:06:44.764Z,51072
2017-10-30T12:07:46.459Z,57696
2017-10-30T12:08:48.064Z,34848
2017-10-30T12:09:49.751Z,53024
2017-10-30T12:10:51.227Z,51936
2017-10-30T12:11:52.985Z,52384
2017-10-30T12:12:54.607Z,51904
2017-10-30T12:13:57.382Z,51424
2017-10-30T12:14:59.012Z,52640
2017-10-30T12:16:00.607Z,52544
2017-10-30T12:17:02.395Z,52128
2017-10-30T12:18:03.957Z,52576
2017-10-30T12:19:05.526Z,53376
2017-10-30T12:20:07.128Z,53152
2017-10-30T12:21:08.750Z,52832
2017-10-30T12:22:10.421Z,53536
2017-10-30T12:23:11.935Z,54432
2017-10-30T12:24:13.741Z,54016
2017-10-30T12:25:15.358Z,49760
2017-10-30T12:26:16.931Z,18496
2017-10-30T12:27:18.645Z,17824
2017-10-30T12:28:20.396Z,18688
2017-10-30T12:29:22.006Z,19456
2017-10-30T12:30:24.677Z,19552
2017-10-30T12:31:26.204Z,34880
2017-10-30T12:32:28.773Z,19104
2017-10-30T12:33:30.309Z,21888
2017-10-30T12:34:32.064Z,25888
2017-10-30T12:35:33.654Z,29440
2017-10-30T12:36:36.390Z,29408
2017-10-30T12:37:38.009Z,27168
2017-10-30T12:38:39.577Z,23968
2017-10-30T12:39:41.277Z,22240
2017-10-30T12:40:42.842Z,37120
2017-10-30T12:41:44.603Z,19648
2017-10-30T12:42:46.385Z,19104
2017-10-30T12:43:48.010Z,18336
2017-10-30T12:44:49.553Z,17472
2017-10-30T12:45:52.057Z,16272
2017-10-30T12:46:53.560Z,15052
2017-10-30T12:47:55.077Z,13908
2017-10-30T12:48:56.883Z,12880
2017-10-30T12:49:58.455Z,11900
2017-10-30T12:51:00.074Z,10936
2017-10-30T12:52:01.566Z,10288
2017-10-30T12:53:03.084Z,9812
2017-10-30T12:54:04.727Z,9340
2017-10-30T12:55:07.258Z,8940
2017-10-30T12:56:08.824Z,8716
2017-10-30T12:57:11.417Z,8688
2017-10-30T12:58:12.951Z,8716
2017-10-30T12:59:14.547Z,8884
2017-10-30T13:00:16.227Z,9312
2017-10-30T13:01:17.804Z,9820
2017-10-30T13:02:19.440Z,10172
2017-10-30T13:03:21.141Z,10324
2017-10-30T13:04:22.671Z,10196
2017-10-30T13:05:24.299Z,9932
2017-10-30T13:06:26.323Z,9644
2017-10-30T13:07:27.891Z,9328
2017-10-30T13:08:29.403Z,9128
2017-10-30T13:09:32.065Z,8944
2017-10-30T13:10:33.656Z,9160
2017-10-30T13:11:35.324Z,9708
2017-10-30T13:12:37.116Z,10100
2017-10-30T13:13:38.718Z,10588
2017-10-30T13:14:40.295Z,11676
2017-10-30T13:15:41.975Z,13028
2017-10-30T13:16:43.585Z,14480
2017-10-30T13:17:45.207Z,35520
2017-10-30T13:18:46.750Z,21888
2017-10-30T13:19:48.375Z,12176
2017-10-30T13:20:49.961Z,30880
2017-10-30T13:21:52.590Z,12408
2017-10-30T13:22:54.175Z,10292
2017-10-30T13:23:55.765Z,8332
2017-10-30T13:24:57.397Z,8044
2017-10-30T13:25:59.006Z,8024
2017-10-30T13:27:00.840Z,8064
2017-10-30T13:28:02.280Z,8156
2017-10-30T13:29:03.838Z,8092
2017-10-30T13:30:05.385Z,7992
2017-10-30T13:31:06.921Z,8116
2017-10-30T13:32:08.600Z,8272
2017-10-30T13:33:10.105Z,8240
2017-10-30T13:34:11.937Z,8368
2017-10-30T13:35:13.473Z,8788
2017-10-30T13:36:15.161Z,9796
2017-10-30T13:37:16.716Z,10932
2017-10-30T13:38:19.962Z,12644
2017-10-30T13:39:21.680Z,14264
2017-10-30T13:40:25.446Z,16468
2017-10-30T13:41:26.951Z,17156
2017-10-30T13:42:29.660Z,23584
2017-10-30T13:43:31.281Z,23008
2017-10-30T13:44:33.210Z,22496
2017-10-30T13:45:34.724Z,25824
2017-10-30T13:46:36.414Z,20064
2017-10-30T13:47:37.931Z,19392
2017-10-30T13:48:39.594Z,17984
2017-10-30T13:49:41.208Z,15344
2017-10-30T13:50:42.888Z,13248
2017-10-30T13:51:44.514Z,11924
2017-10-30T13:52:47.173Z,11152
2017-10-30T13:53:48.714Z,10432
2017-10-30T13:54:50.456Z,9540
2017-10-30T13:55:52.062Z,8684
2017-10-30T13:56:53.747Z,7756
2017-10-30T13:57:55.244Z,6880
2017-10-30T13:58:57.031Z,6148
2017-10-30T13:59:58.589Z,5472
2017-10-30T14:01:00.250Z,4928
2017-10-30T14:02:01.836Z,4588
2017-10-30T14:03:03.616Z,4424
2017-10-30T14:04:05.174Z,4368
2017-10-30T14:05:06.942Z,4416
2017-10-30T14:06:08.539Z,4596
2017-10-30T14:07:10.244Z,4856
2017-10-30T14:08:11.704Z,5048